Cut Bank, MT

4:21 PM MST on November 17, 2017 (GMT -0700)
Cut Bank Municipal | | Change Station
Active Advisory: High Wind Watch

Elev 3855 ft 48.61 °N, 112.38 °W | Updated 25 minutes ago

Clear
Clear
34 °F
Feels Like 23 °F
N
20
Wind Variable Wind from West

Today
High -- | Low -- °F
--% Chance of Precip.
Yesterday
High -- | Low -- °F
Precip. -- in
Pressure 29.78 in
Visibility 10.0 miles
Clouds Clear
Windchill 23 °F
Dew Point 22 °F
Humidity 61%
Rainfall 0.00 in
Snow Depth Not available.
7:41 AM 4:47 PM
Waning Crescent, 0% visible
METAR KCTB 172256Z AUTO 26017KT 10SM CLR 01/M06 A2970 RMK AO2 PK WND 26029/2229 SLP083 T00111056
Pressure 29.78 in
Visibility 10.0 miles
Clouds Clear
Windchill 23 °F
Dew Point 22 °F
Humidity 61%
Rainfall 0.00 in
Snow Depth Not available.
7:41 AM 4:47 PM
Waning Crescent, 0% visible
METAR KCTB 172256Z AUTO 26017KT 10SM CLR 01/M06 A2970 RMK AO2 PK WND 26029/2229 SLP083 T00111056

Get Your Daily Forecast Email!

Thanks for signing up!

Be on the lookout for a verification email in your inbox.

You'll start receiving severe weather alerts in your inbox..

×

10-Day Weather Forecast

Almanac

Astronomy

Nov. 17, 2017 Rise Set
Actual Time
Civil Twilight
Nautical Twilight
Astronomical Twilight
Moon
Length of Visible Light
Length of Day
Tomorrow will be .
, % of the Moon is Illuminated

Today's Extremes

State Highs State Lows

Community

WunderPhotos

Category 6

Welcome to Category 6. This is the collective home for Weather Underground's featured writeups by Dr. Jeff Masters (right), Bob Henson (left), Chris Burt, and other regular contributors.

Nearby

Air Quality

  Air Quality AQ Index Pollutant
Not available.

Snow Depth

Station Depth Elevation

Earthquake Activity

City Distance Mag. Time & Date
Minimum magnitude displayed is 2.5.

Coastal Water Temperatures

Place Temperature

Stations

Nearby Weather Stations

Station Location Temp. Windchill Dew Point Humidity Wind Precip. Elev Updated Type
                   

Watches & Warnings

High Wind Watch
Issued: 2:36 PM MST Nov. 17, 2017 – National Weather Service

... High wind watch in effect from late Saturday night through
late Sunday night...

The National Weather Service in Great Falls has issued a high
wind watch, which is in effect from late Saturday night through
late Sunday night.

* Winds: southwest 30 to 50 mph with gusts up to 80 mph.

* Timing: strong winds will increase late Saturday night into
Sunday, peaking in strength Sunday night.

* Impacts: travel will be difficult, especially for high profile
vehicles. Power outages are possible.


Precautionary/preparedness actions...

A high wind watch means there is the potential for a hazardous
high wind event. Sustained winds of at least 40 mph, or gusts of
58 mph or stronger, may occur. Continue to monitor the latest
forecasts.